sensor_id;sensor_type;location;lat;lon;timestamp;P1;durP1;ratioP1;P2;durP2;ratioP2
34278;SDS011;20538;51.528;9.942;2023-08-06T00:02:24;2.60;;;1.92;;
34278;SDS011;20538;51.528;9.942;2023-08-06T00:04:50;2.80;;;1.70;;
34278;SDS011;20538;51.528;9.942;2023-08-06T00:07:15;3.70;;;2.30;;
34278;SDS011;20538;51.528;9.942;2023-08-06T00:09:41;3.58;;;2.00;;
34278;SDS011;20538;51.528;9.942;2023-08-06T00:12:07;5.07;;;2.55;;
34278;SDS011;20538;51.528;9.942;2023-08-06T00:14:32;6.82;;;3.17;;
34278;SDS011;20538;51.528;9.942;2023-08-06T00:16:58;4.97;;;3.40;;
34278;SDS011;20538;51.528;9.942;2023-08-06T00:19:23;4.20;;;3.20;;
34278;SDS011;20538;51.528;9.942;2023-08-06T00:21:49;4.57;;;2.95;;
34278;SDS011;20538;51.528;9.942;2023-08-06T00:24:18;4.20;;;2.72;;
34278;SDS011;20538;51.528;9.942;2023-08-06T00:26:43;3.78;;;2.63;;
34278;SDS011;20538;51.528;9.942;2023-08-06T00:29:09;4.47;;;2.88;;
34278;SDS011;20538;51.528;9.942;2023-08-06T00:31:34;5.70;;;3.00;;
34278;SDS011;20538;51.528;9.942;2023-08-06T00:34:00;7.07;;;2.92;;
34278;SDS011;20538;51.528;9.942;2023-08-06T00:36:26;4.85;;;2.60;;
34278;SDS011;20538;51.528;9.942;2023-08-06T00:38:51;20.55;;;3.50;;
34278;SDS011;20538;51.528;9.942;2023-08-06T00:41:17;4.43;;;3.15;;
34278;SDS011;20538;51.528;9.942;2023-08-06T00:43:43;5.47;;;3.13;;
34278;SDS011;20538;51.528;9.942;2023-08-06T00:46:08;7.90;;;3.58;;
34278;SDS011;20538;51.528;9.942;2023-08-06T00:48:34;5.32;;;3.30;;
34278;SDS011;20538;51.528;9.942;2023-08-06T00:51:01;6.78;;;3.50;;
34278;SDS011;20538;51.528;9.942;2023-08-06T00:53:27;9.80;;;3.95;;
34278;SDS011;20538;51.528;9.942;2023-08-06T00:55:53;3.78;;;2.80;;
34278;SDS011;20538;51.528;9.942;2023-08-06T00:58:18;5.18;;;3.05;;
34278;SDS011;20538;51.528;9.942;2023-08-06T01:00:44;7.90;;;3.25;;
34278;SDS011;20538;51.528;9.942;2023-08-06T01:03:10;3.20;;;2.90;;
34278;SDS011;20538;51.528;9.942;2023-08-06T01:05:36;6.93;;;3.08;;
34278;SDS011;20538;51.528;9.942;2023-08-06T01:08:06;7.88;;;3.28;;
34278;SDS011;20538;51.528;9.942;2023-08-06T01:13:21;7.60;;;3.28;;
34278;SDS011;20538;51.528;9.942;2023-08-06T01:15:55;4.95;;;3.13;;
34278;SDS011;20538;51.528;9.942;2023-08-06T01:18:22;5.40;;;2.83;;
34278;SDS011;20538;51.528;9.942;2023-08-06T01:20:48;6.35;;;2.40;;
34278;SDS011;20538;51.528;9.942;2023-08-06T01:23:15;5.82;;;2.55;;
34278;SDS011;20538;51.528;9.942;2023-08-06T01:26:05;4.65;;;2.60;;
34278;SDS011;20538;51.528;9.942;2023-08-06T01:31:36;2.85;;;2.30;;
34278;SDS011;20538;51.528;9.942;2023-08-06T01:34:03;2.63;;;2.03;;
34278;SDS011;20538;51.528;9.942;2023-08-06T01:36:32;7.45;;;2.15;;
34278;SDS011;20538;51.528;9.942;2023-08-06T01:38:58;4.07;;;2.10;;
34278;SDS011;20538;51.528;9.942;2023-08-06T01:41:24;3.95;;;2.40;;
34278;SDS011;20538;51.528;9.942;2023-08-06T01:43:50;3.75;;;2.40;;
34278;SDS011;20538;51.528;9.942;2023-08-06T01:46:16;3.63;;;2.28;;
34278;SDS011;20538;51.528;9.942;2023-08-06T01:48:42;3.95;;;2.08;;
34278;SDS011;20538;51.528;9.942;2023-08-06T01:51:08;2.50;;;2.03;;
34278;SDS011;20538;51.528;9.942;2023-08-06T01:53:33;2.65;;;2.05;;
34278;SDS011;20538;51.528;9.942;2023-08-06T01:55:59;3.00;;;2.22;;
34278;SDS011;20538;51.528;9.942;2023-08-06T01:58:25;3.88;;;2.53;;
34278;SDS011;20538;51.528;9.942;2023-08-06T02:00:51;2.78;;;2.08;;
34278;SDS011;20538;51.528;9.942;2023-08-06T02:03:19;2.42;;;2.00;;
34278;SDS011;20538;51.528;9.942;2023-08-06T02:05:44;2.53;;;1.73;;
34278;SDS011;20538;51.528;9.942;2023-08-06T02:08:10;4.50;;;2.50;;
34278;SDS011;20538;51.528;9.942;2023-08-06T02:10:36;3.17;;;1.77;;
34278;SDS011;20538;51.528;9.942;2023-08-06T02:13:02;3.10;;;1.92;;
34278;SDS011;20538;51.528;9.942;2023-08-06T02:15:27;2.85;;;2.20;;
34278;SDS011;20538;51.528;9.942;2023-08-06T02:17:53;5.53;;;2.17;;
34278;SDS011;20538;51.528;9.942;2023-08-06T02:20:19;3.42;;;2.05;;
34278;SDS011;20538;51.528;9.942;2023-08-06T02:22:44;3.13;;;1.77;;
34278;SDS011;20538;51.528;9.942;2023-08-06T02:25:10;4.43;;;2.00;;
34278;SDS011;20538;51.528;9.942;2023-08-06T02:27:36;2.42;;;2.08;;
34278;SDS011;20538;51.528;9.942;2023-08-06T02:30:02;4.20;;;1.98;;
34278;SDS011;20538;51.528;9.942;2023-08-06T02:32:29;5.78;;;2.20;;
34278;SDS011;20538;51.528;9.942;2023-08-06T02:34:56;5.43;;;2.03;;
34278;SDS011;20538;51.528;9.942;2023-08-06T02:37:22;4.70;;;2.00;;
34278;SDS011;20538;51.528;9.942;2023-08-06T02:39:48;6.68;;;2.33;;
34278;SDS011;20538;51.528;9.942;2023-08-06T02:42:13;2.55;;;1.95;;
34278;SDS011;20538;51.528;9.942;2023-08-06T02:44:39;2.22;;;1.70;;
34278;SDS011;20538;51.528;9.942;2023-08-06T02:47:05;4.72;;;2.30;;
34278;SDS011;20538;51.528;9.942;2023-08-06T02:49:30;4.18;;;2.20;;
34278;SDS011;20538;51.528;9.942;2023-08-06T02:51:56;3.80;;;2.05;;
34278;SDS011;20538;51.528;9.942;2023-08-06T02:54:22;2.78;;;2.00;;
34278;SDS011;20538;51.528;9.942;2023-08-06T02:56:47;2.53;;;2.17;;
34278;SDS011;20538;51.528;9.942;2023-08-06T02:59:13;3.00;;;2.00;;
34278;SDS011;20538;51.528;9.942;2023-08-06T03:01:39;2.78;;;1.88;;
34278;SDS011;20538;51.528;9.942;2023-08-06T03:04:04;3.45;;;2.25;;
34278;SDS011;20538;51.528;9.942;2023-08-06T03:06:30;3.70;;;2.00;;
34278;SDS011;20538;51.528;9.942;2023-08-06T03:08:56;3.35;;;2.53;;
34278;SDS011;20538;51.528;9.942;2023-08-06T03:11:22;4.63;;;2.08;;
34278;SDS011;20538;51.528;9.942;2023-08-06T03:13:48;2.13;;;1.92;;
34278;SDS011;20538;51.528;9.942;2023-08-06T03:16:13;4.03;;;2.30;;
34278;SDS011;20538;51.528;9.942;2023-08-06T03:18:39;4.05;;;2.33;;
34278;SDS011;20538;51.528;9.942;2023-08-06T03:21:05;3.08;;;2.10;;
34278;SDS011;20538;51.528;9.942;2023-08-06T03:23:31;6.70;;;2.20;;
34278;SDS011;20538;51.528;9.942;2023-08-06T03:26:03;4.20;;;2.38;;
34278;SDS011;20538;51.528;9.942;2023-08-06T03:28:29;4.05;;;2.08;;
34278;SDS011;20538;51.528;9.942;2023-08-06T03:31:01;3.15;;;2.22;;
34278;SDS011;20538;51.528;9.942;2023-08-06T03:33:27;2.88;;;2.40;;
34278;SDS011;20538;51.528;9.942;2023-08-06T03:35:54;3.92;;;2.38;;
34278;SDS011;20538;51.528;9.942;2023-08-06T03:38:19;4.40;;;2.28;;
34278;SDS011;20538;51.528;9.942;2023-08-06T03:40:48;3.72;;;2.08;;
34278;SDS011;20538;51.528;9.942;2023-08-06T03:43:14;4.85;;;2.30;;
34278;SDS011;20538;51.528;9.942;2023-08-06T03:45:40;2.20;;;1.80;;
34278;SDS011;20538;51.528;9.942;2023-08-06T03:48:06;6.18;;;2.25;;
34278;SDS011;20538;51.528;9.942;2023-08-06T03:50:33;4.50;;;2.42;;
34278;SDS011;20538;51.528;9.942;2023-08-06T03:52:58;5.82;;;2.42;;
34278;SDS011;20538;51.528;9.942;2023-08-06T03:55:24;3.88;;;2.22;;
34278;SDS011;20538;51.528;9.942;2023-08-06T03:57:50;4.32;;;2.33;;
34278;SDS011;20538;51.528;9.942;2023-08-06T04:00:15;3.72;;;2.47;;
34278;SDS011;20538;51.528;9.942;2023-08-06T04:02:41;2.80;;;2.25;;
34278;SDS011;20538;51.528;9.942;2023-08-06T04:05:07;4.57;;;2.05;;
34278;SDS011;20538;51.528;9.942;2023-08-06T04:07:33;2.60;;;2.00;;
34278;SDS011;20538;51.528;9.942;2023-08-06T04:09:59;4.05;;;2.58;;
34278;SDS011;20538;51.528;9.942;2023-08-06T04:12:33;4.22;;;2.10;;
34278;SDS011;20538;51.528;9.942;2023-08-06T04:15:01;4.70;;;2.22;;
34278;SDS011;20538;51.528;9.942;2023-08-06T04:17:28;3.15;;;2.35;;
34278;SDS011;20538;51.528;9.942;2023-08-06T04:19:54;4.65;;;2.00;;
34278;SDS011;20538;51.528;9.942;2023-08-06T04:22:23;2.72;;;2.40;;
34278;SDS011;20538;51.528;9.942;2023-08-06T04:24:49;5.18;;;2.40;;
34278;SDS011;20538;51.528;9.942;2023-08-06T04:27:15;4.68;;;1.90;;
34278;SDS011;20538;51.528;9.942;2023-08-06T04:29:41;2.60;;;2.10;;
34278;SDS011;20538;51.528;9.942;2023-08-06T04:32:08;7.18;;;2.65;;
34278;SDS011;20538;51.528;9.942;2023-08-06T04:34:37;3.83;;;2.25;;
34278;SDS011;20538;51.528;9.942;2023-08-06T04:37:03;5.13;;;2.10;;
34278;SDS011;20538;51.528;9.942;2023-08-06T04:39:29;3.20;;;2.00;;
34278;SDS011;20538;51.528;9.942;2023-08-06T04:41:55;6.00;;;2.10;;
34278;SDS011;20538;51.528;9.942;2023-08-06T04:44:22;3.58;;;2.38;;
34278;SDS011;20538;51.528;9.942;2023-08-06T04:46:48;6.63;;;2.22;;
34278;SDS011;20538;51.528;9.942;2023-08-06T04:49:14;3.50;;;2.47;;
34278;SDS011;20538;51.528;9.942;2023-08-06T04:51:40;7.43;;;2.47;;
34278;SDS011;20538;51.528;9.942;2023-08-06T04:54:05;5.13;;;2.47;;
34278;SDS011;20538;51.528;9.942;2023-08-06T04:56:31;3.13;;;1.98;;
34278;SDS011;20538;51.528;9.942;2023-08-06T04:58:57;3.28;;;2.20;;
34278;SDS011;20538;51.528;9.942;2023-08-06T05:01:23;2.60;;;2.05;;
34278;SDS011;20538;51.528;9.942;2023-08-06T05:03:49;6.57;;;2.15;;
34278;SDS011;20538;51.528;9.942;2023-08-06T05:06:14;4.55;;;2.10;;
34278;SDS011;20538;51.528;9.942;2023-08-06T05:08:40;3.10;;;2.38;;
34278;SDS011;20538;51.528;9.942;2023-08-06T05:11:06;2.38;;;2.03;;
34278;SDS011;20538;51.528;9.942;2023-08-06T05:13:31;3.67;;;2.28;;
34278;SDS011;20538;51.528;9.942;2023-08-06T05:15:57;3.45;;;1.92;;
34278;SDS011;20538;51.528;9.942;2023-08-06T05:18:23;3.88;;;2.08;;
34278;SDS011;20538;51.528;9.942;2023-08-06T05:20:49;2.40;;;2.03;;
34278;SDS011;20538;51.528;9.942;2023-08-06T05:23:15;5.70;;;1.88;;
34278;SDS011;20538;51.528;9.942;2023-08-06T05:25:41;3.83;;;2.08;;
34278;SDS011;20538;51.528;9.942;2023-08-06T05:28:07;4.18;;;2.28;;
34278;SDS011;20538;51.528;9.942;2023-08-06T05:30:33;3.45;;;1.80;;
34278;SDS011;20538;51.528;9.942;2023-08-06T05:32:59;2.90;;;2.03;;
34278;SDS011;20538;51.528;9.942;2023-08-06T05:35:25;3.42;;;2.00;;
34278;SDS011;20538;51.528;9.942;2023-08-06T05:37:50;1.75;;;1.42;;
34278;SDS011;20538;51.528;9.942;2023-08-06T05:40:16;5.22;;;1.60;;
34278;SDS011;20538;51.528;9.942;2023-08-06T05:42:42;3.25;;;1.58;;
34278;SDS011;20538;51.528;9.942;2023-08-06T05:45:08;2.40;;;1.20;;
34278;SDS011;20538;51.528;9.942;2023-08-06T05:47:34;1.55;;;1.30;;
34278;SDS011;20538;51.528;9.942;2023-08-06T05:50:00;1.90;;;1.38;;
34278;SDS011;20538;51.528;9.942;2023-08-06T05:52:26;2.78;;;1.33;;
34278;SDS011;20538;51.528;9.942;2023-08-06T05:54:51;1.45;;;1.35;;
34278;SDS011;20538;51.528;9.942;2023-08-06T05:57:17;10.30;;;1.55;;
34278;SDS011;20538;51.528;9.942;2023-08-06T05:59:43;2.53;;;1.65;;
34278;SDS011;20538;51.528;9.942;2023-08-06T06:02:08;3.00;;;1.80;;
34278;SDS011;20538;51.528;9.942;2023-08-06T06:04:34;2.33;;;1.60;;
34278;SDS011;20538;51.528;9.942;2023-08-06T06:07:00;4.03;;;1.77;;
34278;SDS011;20538;51.528;9.942;2023-08-06T06:09:26;3.40;;;2.13;;
34278;SDS011;20538;51.528;9.942;2023-08-06T06:11:52;3.22;;;1.60;;
34278;SDS011;20538;51.528;9.942;2023-08-06T06:14:18;3.35;;;2.05;;
34278;SDS011;20538;51.528;9.942;2023-08-06T06:16:44;3.42;;;1.75;;
34278;SDS011;20538;51.528;9.942;2023-08-06T06:19:10;3.70;;;1.90;;
34278;SDS011;20538;51.528;9.942;2023-08-06T06:21:37;2.83;;;2.40;;
34278;SDS011;20538;51.528;9.942;2023-08-06T06:24:04;3.67;;;2.03;;
34278;SDS011;20538;51.528;9.942;2023-08-06T06:26:31;3.08;;;1.92;;
34278;SDS011;20538;51.528;9.942;2023-08-06T06:28:57;4.25;;;1.90;;
34278;SDS011;20538;51.528;9.942;2023-08-06T06:31:23;4.03;;;2.20;;
34278;SDS011;20538;51.528;9.942;2023-08-06T06:33:49;4.40;;;2.40;;
34278;SDS011;20538;51.528;9.942;2023-08-06T06:36:14;3.22;;;2.15;;
34278;SDS011;20538;51.528;9.942;2023-08-06T06:38:40;4.03;;;2.40;;
34278;SDS011;20538;51.528;9.942;2023-08-06T06:41:06;2.05;;;1.85;;
34278;SDS011;20538;51.528;9.942;2023-08-06T06:43:32;2.70;;;2.22;;
34278;SDS011;20538;51.528;9.942;2023-08-06T06:46:01;5.28;;;2.30;;
34278;SDS011;20538;51.528;9.942;2023-08-06T06:48:27;2.50;;;1.90;;
34278;SDS011;20538;51.528;9.942;2023-08-06T06:50:54;3.42;;;2.05;;
34278;SDS011;20538;51.528;9.942;2023-08-06T06:53:20;6.13;;;2.85;;
34278;SDS011;20538;51.528;9.942;2023-08-06T06:55:46;3.20;;;2.00;;
34278;SDS011;20538;51.528;9.942;2023-08-06T06:58:14;5.38;;;2.38;;
34278;SDS011;20538;51.528;9.942;2023-08-06T07:00:41;2.63;;;1.77;;
34278;SDS011;20538;51.528;9.942;2023-08-06T07:03:06;3.42;;;2.67;;
34278;SDS011;20538;51.528;9.942;2023-08-06T07:05:32;4.93;;;2.25;;
34278;SDS011;20538;51.528;9.942;2023-08-06T07:07:58;2.75;;;2.05;;
34278;SDS011;20538;51.528;9.942;2023-08-06T07:10:24;6.45;;;2.13;;
34278;SDS011;20538;51.528;9.942;2023-08-06T07:12:51;3.65;;;1.75;;
34278;SDS011;20538;51.528;9.942;2023-08-06T07:15:16;4.38;;;2.15;;
34278;SDS011;20538;51.528;9.942;2023-08-06T07:17:42;3.13;;;2.35;;
34278;SDS011;20538;51.528;9.942;2023-08-06T07:20:08;4.65;;;2.40;;
34278;SDS011;20538;51.528;9.942;2023-08-06T07:22:34;3.92;;;2.20;;
34278;SDS011;20538;51.528;9.942;2023-08-06T07:25:00;3.33;;;2.30;;
34278;SDS011;20538;51.528;9.942;2023-08-06T07:27:27;3.88;;;2.33;;
34278;SDS011;20538;51.528;9.942;2023-08-06T07:29:52;2.63;;;1.75;;
34278;SDS011;20538;51.528;9.942;2023-08-06T07:32:18;2.58;;;1.90;;
34278;SDS011;20538;51.528;9.942;2023-08-06T07:34:44;5.63;;;2.33;;
34278;SDS011;20538;51.528;9.942;2023-08-06T07:37:09;3.30;;;2.33;;
34278;SDS011;20538;51.528;9.942;2023-08-06T07:39:35;3.55;;;2.10;;
34278;SDS011;20538;51.528;9.942;2023-08-06T07:42:03;3.63;;;2.30;;
34278;SDS011;20538;51.528;9.942;2023-08-06T07:44:30;2.05;;;1.85;;
34278;SDS011;20538;51.528;9.942;2023-08-06T07:46:56;6.72;;;2.30;;
34278;SDS011;20538;51.528;9.942;2023-08-06T07:49:22;4.40;;;1.92;;
34278;SDS011;20538;51.528;9.942;2023-08-06T07:51:48;3.05;;;1.88;;
34278;SDS011;20538;51.528;9.942;2023-08-06T07:54:13;4.07;;;1.85;;
34278;SDS011;20538;51.528;9.942;2023-08-06T07:56:39;5.93;;;2.50;;
34278;SDS011;20538;51.528;9.942;2023-08-06T07:59:05;4.00;;;2.20;;
34278;SDS011;20538;51.528;9.942;2023-08-06T08:01:30;3.95;;;2.22;;
34278;SDS011;20538;51.528;9.942;2023-08-06T08:03:56;5.43;;;2.67;;
34278;SDS011;20538;51.528;9.942;2023-08-06T08:06:22;3.95;;;2.20;;
34278;SDS011;20538;51.528;9.942;2023-08-06T08:08:50;2.20;;;1.80;;
34278;SDS011;20538;51.528;9.942;2023-08-06T08:11:17;3.45;;;2.03;;
34278;SDS011;20538;51.528;9.942;2023-08-06T08:13:43;3.42;;;2.10;;
34278;SDS011;20538;51.528;9.942;2023-08-06T08:16:09;3.60;;;1.95;;
34278;SDS011;20538;51.528;9.942;2023-08-06T08:18:35;2.65;;;1.90;;
34278;SDS011;20538;51.528;9.942;2023-08-06T08:21:00;2.58;;;1.77;;
34278;SDS011;20538;51.528;9.942;2023-08-06T08:23:26;4.78;;;2.10;;
34278;SDS011;20538;51.528;9.942;2023-08-06T08:25:52;3.80;;;1.75;;
34278;SDS011;20538;51.528;9.942;2023-08-06T08:28:17;2.70;;;1.92;;
34278;SDS011;20538;51.528;9.942;2023-08-06T08:30:43;3.28;;;2.20;;
34278;SDS011;20538;51.528;9.942;2023-08-06T08:33:09;2.13;;;1.90;;
34278;SDS011;20538;51.528;9.942;2023-08-06T08:35:35;4.28;;;1.60;;
34278;SDS011;20538;51.528;9.942;2023-08-06T08:38:02;1.73;;;1.45;;
34278;SDS011;20538;51.528;9.942;2023-08-06T08:40:30;4.22;;;1.70;;
34278;SDS011;20538;51.528;9.942;2023-08-06T08:42:58;4.22;;;1.85;;
34278;SDS011;20538;51.528;9.942;2023-08-06T08:45:26;3.55;;;1.75;;
34278;SDS011;20538;51.528;9.942;2023-08-06T08:47:54;2.75;;;1.67;;
34278;SDS011;20538;51.528;9.942;2023-08-06T08:50:20;3.17;;;1.60;;
34278;SDS011;20538;51.528;9.942;2023-08-06T08:52:46;2.08;;;1.80;;
34278;SDS011;20538;51.528;9.942;2023-08-06T08:55:15;3.25;;;1.60;;
34278;SDS011;20538;51.528;9.942;2023-08-06T08:57:41;4.15;;;1.90;;
34278;SDS011;20538;51.528;9.942;2023-08-06T09:00:07;8.50;;;2.40;;
34278;SDS011;20538;51.528;9.942;2023-08-06T09:02:33;2.28;;;1.60;;
34278;SDS011;20538;51.528;9.942;2023-08-06T09:04:59;3.63;;;1.83;;
34278;SDS011;20538;51.528;9.942;2023-08-06T09:07:27;2.92;;;1.75;;
34278;SDS011;20538;51.528;9.942;2023-08-06T09:10:01;4.88;;;1.70;;
34278;SDS011;20538;51.528;9.942;2023-08-06T09:12:29;3.75;;;2.45;;
34278;SDS011;20538;51.528;9.942;2023-08-06T09:14:55;4.03;;;1.85;;
34278;SDS011;20538;51.528;9.942;2023-08-06T09:17:21;2.10;;;1.58;;
34278;SDS011;20538;51.528;9.942;2023-08-06T09:19:46;4.45;;;2.05;;
34278;SDS011;20538;51.528;9.942;2023-08-06T09:22:13;6.63;;;1.90;;
34278;SDS011;20538;51.528;9.942;2023-08-06T09:24:39;6.28;;;2.08;;
34278;SDS011;20538;51.528;9.942;2023-08-06T09:27:10;3.85;;;1.77;;
34278;SDS011;20538;51.528;9.942;2023-08-06T09:29:42;5.25;;;2.10;;
34278;SDS011;20538;51.528;9.942;2023-08-06T09:32:09;6.32;;;2.03;;
34278;SDS011;20538;51.528;9.942;2023-08-06T09:34:38;4.50;;;2.00;;
34278;SDS011;20538;51.528;9.942;2023-08-06T09:37:04;4.43;;;2.30;;
34278;SDS011;20538;51.528;9.942;2023-08-06T09:39:30;2.53;;;1.88;;
34278;SDS011;20538;51.528;9.942;2023-08-06T09:41:56;4.45;;;2.42;;
34278;SDS011;20538;51.528;9.942;2023-08-06T09:44:23;2.00;;;1.75;;
34278;SDS011;20538;51.528;9.942;2023-08-06T09:46:54;2.50;;;1.60;;
34278;SDS011;20538;51.528;9.942;2023-08-06T09:49:54;2.83;;;1.90;;
34278;SDS011;20538;51.528;9.942;2023-08-06T09:52:16;2.30;;;1.42;;
34278;SDS011;20538;51.528;9.942;2023-08-06T09:54:44;4.53;;;1.92;;
34278;SDS011;20538;51.528;9.942;2023-08-06T09:57:11;1.92;;;1.58;;
34278;SDS011;20538;51.528;9.942;2023-08-06T09:59:38;3.58;;;1.70;;
34278;SDS011;20538;51.528;9.942;2023-08-06T10:02:12;2.20;;;1.50;;
34278;SDS011;20538;51.528;9.942;2023-08-06T10:04:38;3.53;;;1.73;;
34278;SDS011;20538;51.528;9.942;2023-08-06T10:07:07;3.70;;;1.55;;
34278;SDS011;20538;51.528;9.942;2023-08-06T10:09:37;3.03;;;1.40;;
34278;SDS011;20538;51.528;9.942;2023-08-06T10:12:03;3.05;;;1.48;;
34278;SDS011;20538;51.528;9.942;2023-08-06T10:14:33;4.47;;;1.50;;
34278;SDS011;20538;51.528;9.942;2023-08-06T10:17:02;1.90;;;1.67;;
34278;SDS011;20538;51.528;9.942;2023-08-06T10:19:28;2.22;;;1.80;;
34278;SDS011;20538;51.528;9.942;2023-08-06T10:22:11;1.92;;;1.60;;
34278;SDS011;20538;51.528;9.942;2023-08-06T10:24:49;3.13;;;1.52;;
34278;SDS011;20538;51.528;9.942;2023-08-06T10:27:22;2.58;;;1.70;;
34278;SDS011;20538;51.528;9.942;2023-08-06T10:29:54;2.35;;;1.65;;
34278;SDS011;20538;51.528;9.942;2023-08-06T10:32:19;6.03;;;2.15;;
34278;SDS011;20538;51.528;9.942;2023-08-06T10:34:53;3.47;;;1.60;;
34278;SDS011;20538;51.528;9.942;2023-08-06T10:37:20;4.10;;;1.67;;
34278;SDS011;20538;51.528;9.942;2023-08-06T10:39:51;3.17;;;1.60;;
34278;SDS011;20538;51.528;9.942;2023-08-06T10:42:21;4.10;;;1.65;;
34278;SDS011;20538;51.528;9.942;2023-08-06T10:47:53;1.40;;;1.30;;
34278;SDS011;20538;51.528;9.942;2023-08-06T10:50:21;3.58;;;1.80;;
34278;SDS011;20538;51.528;9.942;2023-08-06T10:52:47;2.90;;;1.55;;
34278;SDS011;20538;51.528;9.942;2023-08-06T10:55:13;2.10;;;1.40;;
34278;SDS011;20538;51.528;9.942;2023-08-06T11:00:15;5.20;;;1.60;;
34278;SDS011;20538;51.528;9.942;2023-08-06T11:02:41;2.72;;;1.67;;
34278;SDS011;20538;51.528;9.942;2023-08-06T11:05:07;2.40;;;1.60;;
34278;SDS011;20538;51.528;9.942;2023-08-06T11:07:35;4.70;;;1.83;;
34278;SDS011;20538;51.528;9.942;2023-08-06T11:10:02;3.05;;;1.58;;
34278;SDS011;20538;51.528;9.942;2023-08-06T11:12:29;1.58;;;1.20;;
34278;SDS011;20538;51.528;9.942;2023-08-06T11:14:55;3.83;;;1.60;;
34278;SDS011;20538;51.528;9.942;2023-08-06T11:17:21;3.85;;;1.10;;
34278;SDS011;20538;51.528;9.942;2023-08-06T11:19:46;2.65;;;1.08;;
34278;SDS011;20538;51.528;9.942;2023-08-06T11:22:14;4.88;;;1.33;;
34278;SDS011;20538;51.528;9.942;2023-08-06T11:24:39;3.28;;;1.20;;
34278;SDS011;20538;51.528;9.942;2023-08-06T11:27:11;1.67;;;1.10;;
34278;SDS011;20538;51.528;9.942;2023-08-06T11:29:38;1.92;;;1.20;;
34278;SDS011;20538;51.528;9.942;2023-08-06T11:32:06;5.35;;;1.58;;
34278;SDS011;20538;51.528;9.942;2023-08-06T11:34:33;4.15;;;1.42;;
34278;SDS011;20538;51.528;9.942;2023-08-06T11:36:59;2.58;;;1.42;;
34278;SDS011;20538;51.528;9.942;2023-08-06T11:39:25;2.28;;;1.48;;
34278;SDS011;20538;51.528;9.942;2023-08-06T11:41:51;2.40;;;1.40;;
34278;SDS011;20538;51.528;9.942;2023-08-06T11:44:21;2.75;;;1.73;;
34278;SDS011;20538;51.528;9.942;2023-08-06T11:46:53;2.85;;;1.55;;
34278;SDS011;20538;51.528;9.942;2023-08-06T11:52:25;2.92;;;1.35;;
34278;SDS011;20538;51.528;9.942;2023-08-06T11:55:04;2.15;;;1.50;;
34278;SDS011;20538;51.528;9.942;2023-08-06T11:57:33;1.95;;;1.40;;
34278;SDS011;20538;51.528;9.942;2023-08-06T12:00:03;1.90;;;1.38;;
34278;SDS011;20538;51.528;9.942;2023-08-06T12:02:33;2.13;;;1.48;;
34278;SDS011;20538;51.528;9.942;2023-08-06T12:05:10;3.50;;;1.35;;
34278;SDS011;20538;51.528;9.942;2023-08-06T12:07:37;4.30;;;2.53;;
34278;SDS011;20538;51.528;9.942;2023-08-06T12:10:07;5.63;;;1.63;;
34278;SDS011;20538;51.528;9.942;2023-08-06T12:12:36;4.65;;;1.60;;
34278;SDS011;20538;51.528;9.942;2023-08-06T12:15:03;2.47;;;1.25;;
34278;SDS011;20538;51.528;9.942;2023-08-06T12:17:31;3.65;;;1.42;;
34278;SDS011;20538;51.528;9.942;2023-08-06T12:19:57;2.78;;;1.35;;
34278;SDS011;20538;51.528;9.942;2023-08-06T12:22:23;3.25;;;1.23;;
34278;SDS011;20538;51.528;9.942;2023-08-06T12:24:49;3.25;;;1.10;;
34278;SDS011;20538;51.528;9.942;2023-08-06T12:27:14;2.63;;;1.50;;
34278;SDS011;20538;51.528;9.942;2023-08-06T12:29:45;3.20;;;1.38;;
34278;SDS011;20538;51.528;9.942;2023-08-06T12:32:13;2.95;;;1.42;;
34278;SDS011;20538;51.528;9.942;2023-08-06T12:34:39;2.78;;;1.70;;
34278;SDS011;20538;51.528;9.942;2023-08-06T12:37:05;1.67;;;1.20;;
34278;SDS011;20538;51.528;9.942;2023-08-06T12:39:35;2.30;;;1.52;;
34278;SDS011;20538;51.528;9.942;2023-08-06T12:42:02;4.07;;;1.50;;
34278;SDS011;20538;51.528;9.942;2023-08-06T12:44:29;3.55;;;1.40;;
34278;SDS011;20538;51.528;9.942;2023-08-06T12:46:55;2.60;;;1.70;;
34278;SDS011;20538;51.528;9.942;2023-08-06T12:49:21;2.25;;;1.20;;
34278;SDS011;20538;51.528;9.942;2023-08-06T12:51:47;2.15;;;1.20;;
34278;SDS011;20538;51.528;9.942;2023-08-06T12:54:16;1.92;;;1.20;;
34278;SDS011;20538;51.528;9.942;2023-08-06T12:56:43;2.90;;;1.58;;
34278;SDS011;20538;51.528;9.942;2023-08-06T12:59:10;4.38;;;1.60;;
34278;SDS011;20538;51.528;9.942;2023-08-06T13:01:37;2.47;;;1.30;;
34278;SDS011;20538;51.528;9.942;2023-08-06T13:04:03;1.85;;;1.30;;
34278;SDS011;20538;51.528;9.942;2023-08-06T13:06:29;5.63;;;2.00;;
34278;SDS011;20538;51.528;9.942;2023-08-06T13:08:58;2.85;;;1.90;;
34278;SDS011;20538;51.528;9.942;2023-08-06T13:11:24;6.65;;;2.47;;
34278;SDS011;20538;51.528;9.942;2023-08-06T13:13:50;7.60;;;3.10;;
34278;SDS011;20538;51.528;9.942;2023-08-06T13:16:16;6.53;;;2.58;;
34278;SDS011;20538;51.528;9.942;2023-08-06T13:18:42;4.97;;;2.40;;
34278;SDS011;20538;51.528;9.942;2023-08-06T13:21:08;5.95;;;1.65;;
34278;SDS011;20538;51.528;9.942;2023-08-06T13:23:34;3.65;;;1.52;;
34278;SDS011;20538;51.528;9.942;2023-08-06T13:25:59;3.88;;;1.85;;
34278;SDS011;20538;51.528;9.942;2023-08-06T13:28:28;3.10;;;1.50;;
34278;SDS011;20538;51.528;9.942;2023-08-06T13:30:54;4.07;;;1.50;;
34278;SDS011;20538;51.528;9.942;2023-08-06T13:33:20;7.97;;;2.15;;
34278;SDS011;20538;51.528;9.942;2023-08-06T13:35:45;8.13;;;2.20;;
34278;SDS011;20538;51.528;9.942;2023-08-06T13:38:11;16.10;;;3.67;;
34278;SDS011;20538;51.528;9.942;2023-08-06T13:40:36;12.55;;;3.60;;
34278;SDS011;20538;51.528;9.942;2023-08-06T13:43:02;13.07;;;4.45;;
34278;SDS011;20538;51.528;9.942;2023-08-06T13:45:28;9.57;;;3.85;;
34278;SDS011;20538;51.528;9.942;2023-08-06T13:47:56;12.85;;;3.60;;
34278;SDS011;20538;51.528;9.942;2023-08-06T13:50:22;6.72;;;2.72;;
34278;SDS011;20538;51.528;9.942;2023-08-06T13:52:50;7.68;;;3.08;;
34278;SDS011;20538;51.528;9.942;2023-08-06T13:55:18;9.70;;;2.65;;
34278;SDS011;20538;51.528;9.942;2023-08-06T13:57:43;10.48;;;2.88;;
34278;SDS011;20538;51.528;9.942;2023-08-06T14:00:09;7.47;;;3.00;;
34278;SDS011;20538;51.528;9.942;2023-08-06T14:02:36;5.45;;;2.75;;
34278;SDS011;20538;51.528;9.942;2023-08-06T14:05:02;8.93;;;3.20;;
34278;SDS011;20538;51.528;9.942;2023-08-06T14:07:28;8.43;;;2.60;;
34278;SDS011;20538;51.528;9.942;2023-08-06T14:09:54;5.65;;;2.13;;
34278;SDS011;20538;51.528;9.942;2023-08-06T14:12:22;7.95;;;2.35;;
34278;SDS011;20538;51.528;9.942;2023-08-06T14:14:48;9.95;;;2.60;;
34278;SDS011;20538;51.528;9.942;2023-08-06T14:17:13;5.28;;;2.95;;
34278;SDS011;20538;51.528;9.942;2023-08-06T14:19:40;5.63;;;2.15;;
34278;SDS011;20538;51.528;9.942;2023-08-06T14:22:06;8.18;;;2.33;;
34278;SDS011;20538;51.528;9.942;2023-08-06T14:24:32;9.02;;;2.40;;
34278;SDS011;20538;51.528;9.942;2023-08-06T14:26:58;5.18;;;2.30;;
34278;SDS011;20538;51.528;9.942;2023-08-06T14:29:23;5.45;;;2.28;;
34278;SDS011;20538;51.528;9.942;2023-08-06T14:31:49;3.63;;;2.20;;
34278;SDS011;20538;51.528;9.942;2023-08-06T14:34:16;5.82;;;2.70;;
34278;SDS011;20538;51.528;9.942;2023-08-06T14:36:41;7.63;;;2.58;;
34278;SDS011;20538;51.528;9.942;2023-08-06T14:39:07;6.90;;;2.30;;
34278;SDS011;20538;51.528;9.942;2023-08-06T14:41:33;5.45;;;2.40;;
34278;SDS011;20538;51.528;9.942;2023-08-06T14:43:59;5.00;;;2.30;;
34278;SDS011;20538;51.528;9.942;2023-08-06T14:46:25;8.55;;;2.90;;
34278;SDS011;20538;51.528;9.942;2023-08-06T14:48:50;7.53;;;2.75;;
34278;SDS011;20538;51.528;9.942;2023-08-06T14:51:16;7.20;;;2.70;;
34278;SDS011;20538;51.528;9.942;2023-08-06T14:53:44;5.90;;;2.90;;
34278;SDS011;20538;51.528;9.942;2023-08-06T14:56:10;5.90;;;3.30;;
34278;SDS011;20538;51.528;9.942;2023-08-06T14:58:35;6.57;;;3.13;;
34278;SDS011;20538;51.528;9.942;2023-08-06T15:01:01;4.03;;;2.53;;